Terminal Aerodrome Forecast
Issued by NWS

Home | Current Version | Previous Version | Text Only | Print | Product List | Glossary On
Versions: 1 2 3 4 5 6 7 8 9 10 11 12 13 14 15 16 17 18
000
FTUS45 KTFX 281700 RRA
TAFLWT
TAF
KLWT 281741Z 2818/2918 24022G34KT P6SM SCT150
     FM290200 31012G22KT P6SM VCSH SCT008 OVC025
     FM290700 32012G18KT 2SM -SN SCT004 OVC015=

USA.gov is the U.S. government's official web portal to all federal, state and local government web resources and services.